createdAt,value
2022-11-27T10:39:14.847Z,13.74
2022-11-27T10:40:19.759Z,13.60
2022-11-27T10:41:48.281Z,13.13
2022-11-27T10:42:47.102Z,10.32
2022-11-27T10:43:51.600Z,12.98
2022-11-27T10:44:58.268Z,13.40
2022-11-27T10:46:02.291Z,12.68
2022-11-27T10:47:04.225Z,13.73
2022-11-27T10:48:05.880Z,14.20
2022-11-27T10:49:08.642Z,12.40
2022-11-27T10:50:14.083Z,12.02
2022-11-27T10:51:16.810Z,11.75
2022-11-27T10:52:19.505Z,11.07
2022-11-27T10:53:25.125Z,11.70
2022-11-27T10:54:28.031Z,11.43
2022-11-27T10:55:37.307Z,11.50
2022-11-27T10:56:45.733Z,12.40
2022-11-27T10:57:53.026Z,13.95
2022-11-27T10:58:56.106Z,13.82
2022-11-27T11:00:04.275Z,15.20
2022-11-27T11:01:06.622Z,15.98
2022-11-27T11:02:24.286Z,14.40
2022-11-27T11:03:25.461Z,13.00
2022-11-27T11:04:42.749Z,15.65
2022-11-27T11:06:19.234Z,14.73
2022-11-27T11:07:23.397Z,14.43
2022-11-27T11:08:25.544Z,15.15
2022-11-27T11:09:28.573Z,13.25
2022-11-27T11:10:31.925Z,13.07
2022-11-27T11:11:33.101Z,16.67
2022-11-27T11:12:34.028Z,15.27
2022-11-27T11:13:43.102Z,12.93
2022-11-27T11:14:50.623Z,12.32
2022-11-27T11:15:53.381Z,11.80
2022-11-27T11:16:54.643Z,12.35
2022-11-27T11:17:55.609Z,13.43
2022-11-27T11:18:57.545Z,11.85
2022-11-27T11:21:00.426Z,11.75
2022-11-27T11:22:04.222Z,12.82
2022-11-27T11:23:05.852Z,11.13
2022-11-27T11:24:12.784Z,12.20
2022-11-27T11:25:16.960Z,12.95
2022-11-27T11:26:24.637Z,11.80
2022-11-27T11:27:26.336Z,11.93
2022-11-27T11:28:27.721Z,11.40
2022-11-27T11:29:31.155Z,11.20
2022-11-27T11:30:33.989Z,11.13
2022-11-27T11:31:36.737Z,9.98
2022-11-27T11:32:38.740Z,13.07
2022-11-27T11:34:42.401Z,11.55
2022-11-27T11:35:50.584Z,11.40
2022-11-27T11:36:55.963Z,10.35
2022-11-27T11:37:57.221Z,12.05
2022-11-27T11:38:58.409Z,10.27
2022-11-27T11:40:00.545Z,11.02
2022-11-27T11:41:03.247Z,9.90
2022-11-27T11:42:08.323Z,8.82
2022-11-27T11:43:22.322Z,10.13
2022-11-27T11:44:26.425Z,9.38
2022-11-27T11:45:32.305Z,9.70
2022-11-27T11:46:36.068Z,10.57
2022-11-27T11:47:43.893Z,10.07
2022-11-27T11:48:54.881Z,10.13
2022-11-27T11:49:56.704Z,13.10
2022-11-27T11:50:59.849Z,12.88
2022-11-27T11:52:21.163Z,13.00
2022-11-27T11:53:25.766Z,14.63
2022-11-27T11:54:39.236Z,15.02
2022-11-27T11:55:43.862Z,16.17
2022-11-27T11:56:48.889Z,16.70
2022-11-27T11:57:59.577Z,14.95
2022-11-27T11:59:02.498Z,16.75
2022-11-27T12:00:06.472Z,16.27
2022-11-27T12:01:30.624Z,14.75
2022-11-27T12:02:42.454Z,13.65
2022-11-27T12:03:51.177Z,14.65
2022-11-27T12:05:02.952Z,13.55
2022-11-27T12:06:15.448Z,13.63
2022-11-27T12:07:19.661Z,14.60
2022-11-27T12:08:28.261Z,12.25
2022-11-27T12:09:40.966Z,15.73
2022-11-27T12:10:49.841Z,16.10
2022-11-27T12:11:56.402Z,16.05
2022-11-27T12:13:02.232Z,18.52
2022-11-27T12:14:15.798Z,21.30
2022-11-27T12:15:21.829Z,16.60
2022-11-27T12:16:29.042Z,15.35
2022-11-27T12:17:38.628Z,17.13
2022-11-27T12:18:43.725Z,15.20
2022-11-27T12:20:04.618Z,13.43
2022-11-27T12:21:12.664Z,15.90
2022-11-27T12:22:21.914Z,21.90
2022-11-27T12:23:31.180Z,19.15
2022-11-27T12:24:40.511Z,15.52
2022-11-27T12:25:44.661Z,11.38
2022-11-27T12:26:53.403Z,11.35
2022-11-27T12:28:01.903Z,11.57
2022-11-27T12:29:10.017Z,14.75
2022-11-27T12:30:13.040Z,14.40
2022-11-27T12:31:18.851Z,16.92
2022-11-27T12:32:37.611Z,17.65
2022-11-27T12:33:47.605Z,11.65
2022-11-27T12:34:54.900Z,13.60
2022-11-27T12:36:02.442Z,12.07
2022-11-27T12:37:13.959Z,13.73
2022-11-27T12:38:21.623Z,11.73
2022-11-27T12:39:24.959Z,11.75
2022-11-27T12:40:32.735Z,10.80
2022-11-27T12:41:41.538Z,11.20
2022-11-27T12:42:47.666Z,9.02
2022-11-27T12:43:49.997Z,9.68
2022-11-27T12:44:55.011Z,9.50
2022-11-27T12:46:01.019Z,10.02
2022-11-27T12:47:04.285Z,11.45
